sensor_id;sensor_type;location;lat;lon;timestamp;P1;durP1;ratioP1;P2;durP2;ratioP2
14892;SDS011;7538;53.626;9.906;2023-04-12T00:01:28;19.17;;;12.17;;
14892;SDS011;7538;53.626;9.906;2023-04-12T00:03:57;14.30;;;11.40;;
14892;SDS011;7538;53.626;9.906;2023-04-12T00:06:28;15.37;;;11.27;;
14892;SDS011;7538;53.626;9.906;2023-04-12T00:08:57;16.00;;;11.33;;
14892;SDS011;7538;53.626;9.906;2023-04-12T00:11:24;15.40;;;10.00;;
14892;SDS011;7538;53.626;9.906;2023-04-12T00:13:51;17.60;;;10.93;;
14892;SDS011;7538;53.626;9.906;2023-04-12T00:16:18;20.77;;;10.97;;
14892;SDS011;7538;53.626;9.906;2023-04-12T00:18:45;16.17;;;10.20;;
14892;SDS011;7538;53.626;9.906;2023-04-12T00:21:14;14.47;;;9.60;;
14892;SDS011;7538;53.626;9.906;2023-04-12T00:23:43;13.70;;;9.30;;
14892;SDS011;7538;53.626;9.906;2023-04-12T00:26:11;13.30;;;9.00;;
14892;SDS011;7538;53.626;9.906;2023-04-12T00:28:37;13.87;;;9.27;;
14892;SDS011;7538;53.626;9.906;2023-04-12T00:31:05;14.50;;;9.13;;
14892;SDS011;7538;53.626;9.906;2023-04-12T00:33:32;15.87;;;9.87;;
14892;SDS011;7538;53.626;9.906;2023-04-12T00:35:59;13.33;;;9.83;;
14892;SDS011;7538;53.626;9.906;2023-04-12T00:38:27;14.83;;;9.50;;
14892;SDS011;7538;53.626;9.906;2023-04-12T00:40:54;13.90;;;9.70;;
14892;SDS011;7538;53.626;9.906;2023-04-12T00:43:21;13.70;;;9.73;;
14892;SDS011;7538;53.626;9.906;2023-04-12T00:45:51;16.00;;;10.50;;
14892;SDS011;7538;53.626;9.906;2023-04-12T00:48:20;15.17;;;9.47;;
14892;SDS011;7538;53.626;9.906;2023-04-12T00:50:47;13.07;;;8.53;;
14892;SDS011;7538;53.626;9.906;2023-04-12T00:53:14;13.00;;;8.63;;
14892;SDS011;7538;53.626;9.906;2023-04-12T00:55:43;14.90;;;9.10;;
14892;SDS011;7538;53.626;9.906;2023-04-12T00:58:10;15.13;;;8.37;;
14892;SDS011;7538;53.626;9.906;2023-04-12T01:00:38;9.53;;;7.37;;
14892;SDS011;7538;53.626;9.906;2023-04-12T01:03:05;11.27;;;6.60;;
14892;SDS011;7538;53.626;9.906;2023-04-12T01:05:34;10.83;;;6.20;;
14892;SDS011;7538;53.626;9.906;2023-04-12T01:08:13;11.73;;;6.23;;
14892;SDS011;7538;53.626;9.906;2023-04-12T01:10:48;12.43;;;5.53;;
14892;SDS011;7538;53.626;9.906;2023-04-12T01:13:21;6.77;;;5.40;;
14892;SDS011;7538;53.626;9.906;2023-04-12T01:15:57;8.80;;;5.13;;
14892;SDS011;7538;53.626;9.906;2023-04-12T01:18:28;7.03;;;5.47;;
14892;SDS011;7538;53.626;9.906;2023-04-12T01:21:05;10.00;;;6.53;;
14892;SDS011;7538;53.626;9.906;2023-04-12T01:23:42;7.53;;;5.97;;
14892;SDS011;7538;53.626;9.906;2023-04-12T01:26:28;11.40;;;6.73;;
14892;SDS011;7538;53.626;9.906;2023-04-12T01:29:03;13.37;;;7.37;;
14892;SDS011;7538;53.626;9.906;2023-04-12T01:31:35;12.17;;;5.90;;
14892;SDS011;7538;53.626;9.906;2023-04-12T01:34:04;10.97;;;6.27;;
14892;SDS011;7538;53.626;9.906;2023-04-12T01:36:33;9.23;;;6.07;;
14892;SDS011;7538;53.626;9.906;2023-04-12T01:39:01;11.50;;;6.40;;
14892;SDS011;7538;53.626;9.906;2023-04-12T01:41:29;12.37;;;6.83;;
14892;SDS011;7538;53.626;9.906;2023-04-12T01:43:57;9.10;;;5.73;;
14892;SDS011;7538;53.626;9.906;2023-04-12T01:46:25;10.73;;;5.83;;
14892;SDS011;7538;53.626;9.906;2023-04-12T01:48:52;9.77;;;5.80;;
14892;SDS011;7538;53.626;9.906;2023-04-12T01:51:24;10.83;;;5.67;;
14892;SDS011;7538;53.626;9.906;2023-04-12T01:53:59;10.97;;;5.97;;
14892;SDS011;7538;53.626;9.906;2023-04-12T01:56:35;8.17;;;5.47;;
14892;SDS011;7538;53.626;9.906;2023-04-12T01:59:03;8.30;;;4.50;;
14892;SDS011;7538;53.626;9.906;2023-04-12T02:01:32;11.00;;;6.17;;
14892;SDS011;7538;53.626;9.906;2023-04-12T02:04:00;8.93;;;6.47;;
14892;SDS011;7538;53.626;9.906;2023-04-12T02:06:28;12.70;;;7.53;;
14892;SDS011;7538;53.626;9.906;2023-04-12T02:08:57;12.83;;;7.93;;
14892;SDS011;7538;53.626;9.906;2023-04-12T02:11:24;14.77;;;8.80;;
14892;SDS011;7538;53.626;9.906;2023-04-12T02:13:51;16.50;;;9.80;;
14892;SDS011;7538;53.626;9.906;2023-04-12T02:16:18;13.33;;;9.23;;
14892;SDS011;7538;53.626;9.906;2023-04-12T02:18:48;12.70;;;8.80;;
14892;SDS011;7538;53.626;9.906;2023-04-12T02:21:15;12.43;;;8.10;;
14892;SDS011;7538;53.626;9.906;2023-04-12T02:23:42;13.73;;;8.57;;
14892;SDS011;7538;53.626;9.906;2023-04-12T02:26:10;13.40;;;7.90;;
14892;SDS011;7538;53.626;9.906;2023-04-12T02:28:36;11.67;;;7.80;;
14892;SDS011;7538;53.626;9.906;2023-04-12T02:31:04;12.33;;;7.00;;
14892;SDS011;7538;53.626;9.906;2023-04-12T02:33:32;10.00;;;6.70;;
14892;SDS011;7538;53.626;9.906;2023-04-12T02:36:01;11.13;;;6.93;;
14892;SDS011;7538;53.626;9.906;2023-04-12T02:38:28;9.60;;;6.03;;
14892;SDS011;7538;53.626;9.906;2023-04-12T02:40:55;9.73;;;4.87;;
14892;SDS011;7538;53.626;9.906;2023-04-12T02:43:22;10.40;;;5.47;;
14892;SDS011;7538;53.626;9.906;2023-04-12T02:45:49;8.40;;;4.97;;
14892;SDS011;7538;53.626;9.906;2023-04-12T02:48:16;7.03;;;4.17;;
14892;SDS011;7538;53.626;9.906;2023-04-12T02:50:42;7.67;;;4.73;;
14892;SDS011;7538;53.626;9.906;2023-04-12T02:53:11;6.10;;;4.27;;
14892;SDS011;7538;53.626;9.906;2023-04-12T02:55:38;7.93;;;4.30;;
14892;SDS011;7538;53.626;9.906;2023-04-12T02:58:04;8.97;;;4.00;;
14892;SDS011;7538;53.626;9.906;2023-04-12T03:00:32;6.60;;;3.63;;
14892;SDS011;7538;53.626;9.906;2023-04-12T03:02:59;10.10;;;4.50;;
14892;SDS011;7538;53.626;9.906;2023-04-12T03:05:26;10.53;;;4.63;;
14892;SDS011;7538;53.626;9.906;2023-04-12T03:07:53;8.03;;;3.87;;
14892;SDS011;7538;53.626;9.906;2023-04-12T03:10:21;7.13;;;4.60;;
14892;SDS011;7538;53.626;9.906;2023-04-12T03:12:48;7.23;;;4.53;;
14892;SDS011;7538;53.626;9.906;2023-04-12T03:15:15;9.63;;;5.97;;
14892;SDS011;7538;53.626;9.906;2023-04-12T03:17:42;9.27;;;5.57;;
14892;SDS011;7538;53.626;9.906;2023-04-12T03:20:10;7.87;;;5.13;;
14892;SDS011;7538;53.626;9.906;2023-04-12T03:22:37;6.57;;;4.93;;
14892;SDS011;7538;53.626;9.906;2023-04-12T03:25:04;5.77;;;4.37;;
14892;SDS011;7538;53.626;9.906;2023-04-12T03:27:35;9.17;;;4.00;;
14892;SDS011;7538;53.626;9.906;2023-04-12T03:30:02;10.73;;;4.27;;
14892;SDS011;7538;53.626;9.906;2023-04-12T03:32:30;6.27;;;4.03;;
14892;SDS011;7538;53.626;9.906;2023-04-12T03:34:57;8.77;;;4.20;;
14892;SDS011;7538;53.626;9.906;2023-04-12T03:37:24;8.43;;;4.53;;
14892;SDS011;7538;53.626;9.906;2023-04-12T03:39:51;5.90;;;4.07;;
14892;SDS011;7538;53.626;9.906;2023-04-12T03:42:18;6.73;;;4.30;;
14892;SDS011;7538;53.626;9.906;2023-04-12T03:44:46;8.33;;;4.50;;
14892;SDS011;7538;53.626;9.906;2023-04-12T03:47:13;10.87;;;4.63;;
14892;SDS011;7538;53.626;9.906;2023-04-12T03:49:40;9.77;;;5.23;;
14892;SDS011;7538;53.626;9.906;2023-04-12T03:52:07;12.03;;;5.00;;
14892;SDS011;7538;53.626;9.906;2023-04-12T03:54:34;7.53;;;4.97;;
14892;SDS011;7538;53.626;9.906;2023-04-12T03:57:01;10.40;;;5.00;;
14892;SDS011;7538;53.626;9.906;2023-04-12T03:59:28;5.73;;;4.47;;
14892;SDS011;7538;53.626;9.906;2023-04-12T04:01:58;10.17;;;6.43;;
14892;SDS011;7538;53.626;9.906;2023-04-12T04:04:25;10.67;;;5.83;;
14892;SDS011;7538;53.626;9.906;2023-04-12T04:06:52;7.27;;;5.47;;
14892;SDS011;7538;53.626;9.906;2023-04-12T04:09:19;5.73;;;4.20;;
14892;SDS011;7538;53.626;9.906;2023-04-12T04:11:46;7.00;;;4.60;;
14892;SDS011;7538;53.626;9.906;2023-04-12T04:14:14;6.47;;;4.70;;
14892;SDS011;7538;53.626;9.906;2023-04-12T04:16:40;9.53;;;5.07;;
14892;SDS011;7538;53.626;9.906;2023-04-12T04:19:08;9.83;;;4.77;;
14892;SDS011;7538;53.626;9.906;2023-04-12T04:21:35;10.63;;;4.93;;
14892;SDS011;7538;53.626;9.906;2023-04-12T04:24:04;7.20;;;4.47;;
14892;SDS011;7538;53.626;9.906;2023-04-12T04:26:35;8.83;;;4.23;;
14892;SDS011;7538;53.626;9.906;2023-04-12T04:29:02;7.03;;;3.90;;
14892;SDS011;7538;53.626;9.906;2023-04-12T04:31:29;4.93;;;4.03;;
14892;SDS011;7538;53.626;9.906;2023-04-12T04:33:58;10.70;;;4.50;;
14892;SDS011;7538;53.626;9.906;2023-04-12T04:36:28;7.83;;;4.03;;
14892;SDS011;7538;53.626;9.906;2023-04-12T04:38:56;6.33;;;4.00;;
14892;SDS011;7538;53.626;9.906;2023-04-12T04:41:23;6.93;;;4.10;;
14892;SDS011;7538;53.626;9.906;2023-04-12T04:43:50;8.33;;;4.50;;
14892;SDS011;7538;53.626;9.906;2023-04-12T04:46:18;8.20;;;4.27;;
14892;SDS011;7538;53.626;9.906;2023-04-12T04:48:46;8.93;;;4.30;;
14892;SDS011;7538;53.626;9.906;2023-04-12T04:51:13;7.07;;;3.90;;
14892;SDS011;7538;53.626;9.906;2023-04-12T04:53:41;7.80;;;3.93;;
14892;SDS011;7538;53.626;9.906;2023-04-12T04:56:09;5.87;;;3.77;;
14892;SDS011;7538;53.626;9.906;2023-04-12T04:58:36;6.17;;;4.00;;
14892;SDS011;7538;53.626;9.906;2023-04-12T05:01:03;9.13;;;4.00;;
14892;SDS011;7538;53.626;9.906;2023-04-12T05:03:31;7.17;;;3.70;;
14892;SDS011;7538;53.626;9.906;2023-04-12T05:05:58;5.27;;;3.37;;
14892;SDS011;7538;53.626;9.906;2023-04-12T05:08:26;7.13;;;3.40;;
14892;SDS011;7538;53.626;9.906;2023-04-12T05:10:55;5.70;;;3.83;;
14892;SDS011;7538;53.626;9.906;2023-04-12T05:13:22;4.90;;;3.13;;
14892;SDS011;7538;53.626;9.906;2023-04-12T05:15:49;7.97;;;3.23;;
14892;SDS011;7538;53.626;9.906;2023-04-12T05:18:16;4.93;;;3.00;;
14892;SDS011;7538;53.626;9.906;2023-04-12T05:20:43;4.73;;;2.70;;
14892;SDS011;7538;53.626;9.906;2023-04-12T05:23:10;9.00;;;2.80;;
14892;SDS011;7538;53.626;9.906;2023-04-12T05:25:42;4.37;;;2.67;;
14892;SDS011;7538;53.626;9.906;2023-04-12T05:28:12;5.63;;;2.40;;
14892;SDS011;7538;53.626;9.906;2023-04-12T05:30:41;3.97;;;2.60;;
14892;SDS011;7538;53.626;9.906;2023-04-12T05:33:08;6.07;;;2.70;;
14892;SDS011;7538;53.626;9.906;2023-04-12T05:35:35;5.03;;;2.63;;
14892;SDS011;7538;53.626;9.906;2023-04-12T05:38:02;3.07;;;2.40;;
14892;SDS011;7538;53.626;9.906;2023-04-12T05:40:29;9.27;;;2.90;;
14892;SDS011;7538;53.626;9.906;2023-04-12T05:42:56;6.70;;;2.47;;
14892;SDS011;7538;53.626;9.906;2023-04-12T05:45:25;6.80;;;3.47;;
14892;SDS011;7538;53.626;9.906;2023-04-12T05:47:52;4.10;;;2.37;;
14892;SDS011;7538;53.626;9.906;2023-04-12T05:50:20;4.90;;;2.77;;
14892;SDS011;7538;53.626;9.906;2023-04-12T05:52:47;5.43;;;2.47;;
14892;SDS011;7538;53.626;9.906;2023-04-12T05:55:15;5.73;;;2.83;;
14892;SDS011;7538;53.626;9.906;2023-04-12T05:57:43;4.80;;;2.70;;
14892;SDS011;7538;53.626;9.906;2023-04-12T06:00:11;6.90;;;2.77;;
14892;SDS011;7538;53.626;9.906;2023-04-12T06:02:43;6.67;;;3.23;;
14892;SDS011;7538;53.626;9.906;2023-04-12T06:05:10;5.70;;;2.60;;
14892;SDS011;7538;53.626;9.906;2023-04-12T06:07:38;5.37;;;2.57;;
14892;SDS011;7538;53.626;9.906;2023-04-12T06:10:06;8.43;;;2.70;;
14892;SDS011;7538;53.626;9.906;2023-04-12T06:12:34;2.93;;;2.07;;
14892;SDS011;7538;53.626;9.906;2023-04-12T06:15:00;4.93;;;2.72;;
14892;SDS011;7538;53.626;9.906;2023-04-12T06:17:27;6.93;;;2.78;;
14892;SDS011;7538;53.626;9.906;2023-04-12T06:19:55;6.78;;;2.33;;
14892;SDS011;7538;53.626;9.906;2023-04-12T06:22:22;5.32;;;2.55;;
14892;SDS011;7538;53.626;9.906;2023-04-12T06:24:49;6.53;;;3.17;;
14892;SDS011;7538;53.626;9.906;2023-04-12T06:27:16;3.38;;;2.20;;
14892;SDS011;7538;53.626;9.906;2023-04-12T06:29:44;6.03;;;2.28;;
14892;SDS011;7538;53.626;9.906;2023-04-12T06:32:11;3.92;;;2.38;;
14892;SDS011;7538;53.626;9.906;2023-04-12T06:34:38;5.13;;;2.40;;
14892;SDS011;7538;53.626;9.906;2023-04-12T06:37:06;7.20;;;2.72;;
14892;SDS011;7538;53.626;9.906;2023-04-12T06:39:33;2.63;;;1.90;;
14892;SDS011;7538;53.626;9.906;2023-04-12T06:42:00;4.82;;;2.15;;
14892;SDS011;7538;53.626;9.906;2023-04-12T06:44:27;4.50;;;1.92;;
14892;SDS011;7538;53.626;9.906;2023-04-12T06:46:54;2.65;;;1.77;;
14892;SDS011;7538;53.626;9.906;2023-04-12T06:49:21;5.10;;;2.00;;
14892;SDS011;7538;53.626;9.906;2023-04-12T06:51:48;4.95;;;2.10;;
14892;SDS011;7538;53.626;9.906;2023-04-12T06:54:16;5.32;;;2.40;;
14892;SDS011;7538;53.626;9.906;2023-04-12T06:56:43;4.85;;;2.00;;
14892;SDS011;7538;53.626;9.906;2023-04-12T06:59:09;3.88;;;2.08;;
14892;SDS011;7538;53.626;9.906;2023-04-12T07:01:36;5.25;;;2.38;;
14892;SDS011;7538;53.626;9.906;2023-04-12T07:04:03;3.58;;;1.90;;
14892;SDS011;7538;53.626;9.906;2023-04-12T07:06:30;5.15;;;2.40;;
14892;SDS011;7538;53.626;9.906;2023-04-12T07:08:57;5.45;;;2.03;;
14892;SDS011;7538;53.626;9.906;2023-04-12T07:11:25;3.63;;;2.05;;
14892;SDS011;7538;53.626;9.906;2023-04-12T07:13:52;5.07;;;2.20;;
14892;SDS011;7538;53.626;9.906;2023-04-12T07:16:19;3.50;;;2.05;;
14892;SDS011;7538;53.626;9.906;2023-04-12T07:18:46;3.88;;;2.20;;
14892;SDS011;7538;53.626;9.906;2023-04-12T07:21:13;5.45;;;2.30;;
14892;SDS011;7538;53.626;9.906;2023-04-12T07:23:41;4.78;;;2.25;;
14892;SDS011;7538;53.626;9.906;2023-04-12T07:26:08;6.40;;;2.40;;
14892;SDS011;7538;53.626;9.906;2023-04-12T07:28:36;6.25;;;2.45;;
14892;SDS011;7538;53.626;9.906;2023-04-12T07:31:03;4.00;;;2.00;;
14892;SDS011;7538;53.626;9.906;2023-04-12T07:33:31;5.88;;;2.83;;
14892;SDS011;7538;53.626;9.906;2023-04-12T07:35:59;4.50;;;2.75;;
14892;SDS011;7538;53.626;9.906;2023-04-12T07:38:26;5.20;;;2.30;;
14892;SDS011;7538;53.626;9.906;2023-04-12T07:40:53;4.30;;;2.40;;
14892;SDS011;7538;53.626;9.906;2023-04-12T07:43:20;6.13;;;2.58;;
14892;SDS011;7538;53.626;9.906;2023-04-12T07:45:50;4.50;;;2.47;;
14892;SDS011;7538;53.626;9.906;2023-04-12T07:48:19;2.75;;;2.30;;
14892;SDS011;7538;53.626;9.906;2023-04-12T07:50:45;6.50;;;2.55;;
14892;SDS011;7538;53.626;9.906;2023-04-12T07:53:19;5.23;;;2.63;;
14892;SDS011;7538;53.626;9.906;2023-04-12T07:55:47;7.60;;;2.50;;
14892;SDS011;7538;53.626;9.906;2023-04-12T07:58:14;7.67;;;2.20;;
14892;SDS011;7538;53.626;9.906;2023-04-12T08:00:42;3.92;;;2.10;;
14892;SDS011;7538;53.626;9.906;2023-04-12T08:03:11;3.88;;;2.30;;
14892;SDS011;7538;53.626;9.906;2023-04-12T08:05:38;3.45;;;2.28;;
14892;SDS011;7538;53.626;9.906;2023-04-12T08:08:06;5.27;;;2.40;;
14892;SDS011;7538;53.626;9.906;2023-04-12T08:10:34;4.20;;;2.57;;
14892;SDS011;7538;53.626;9.906;2023-04-12T08:13:01;4.18;;;2.40;;
14892;SDS011;7538;53.626;9.906;2023-04-12T08:15:29;4.90;;;2.63;;
14892;SDS011;7538;53.626;9.906;2023-04-12T08:17:55;3.77;;;2.27;;
14892;SDS011;7538;53.626;9.906;2023-04-12T08:20:23;5.00;;;2.30;;
14892;SDS011;7538;53.626;9.906;2023-04-12T08:22:50;3.73;;;2.47;;
14892;SDS011;7538;53.626;9.906;2023-04-12T08:25:18;2.43;;;2.03;;
14892;SDS011;7538;53.626;9.906;2023-04-12T08:27:47;4.83;;;2.53;;
14892;SDS011;7538;53.626;9.906;2023-04-12T08:30:15;5.83;;;2.50;;
14892;SDS011;7538;53.626;9.906;2023-04-12T08:32:42;6.10;;;2.67;;
14892;SDS011;7538;53.626;9.906;2023-04-12T08:35:09;7.13;;;2.42;;
14892;SDS011;7538;53.626;9.906;2023-04-12T08:37:38;4.50;;;2.50;;
14892;SDS011;7538;53.626;9.906;2023-04-12T08:40:05;5.77;;;2.97;;
14892;SDS011;7538;53.626;9.906;2023-04-12T08:42:33;6.18;;;2.90;;
14892;SDS011;7538;53.626;9.906;2023-04-12T08:45:04;5.53;;;2.80;;
14892;SDS011;7538;53.626;9.906;2023-04-12T08:47:32;7.40;;;3.20;;
14892;SDS011;7538;53.626;9.906;2023-04-12T08:50:01;4.05;;;3.20;;
14892;SDS011;7538;53.626;9.906;2023-04-12T08:52:29;5.57;;;2.80;;
14892;SDS011;7538;53.626;9.906;2023-04-12T08:55:02;6.63;;;3.17;;
14892;SDS011;7538;53.626;9.906;2023-04-12T08:57:29;6.50;;;2.70;;
14892;SDS011;7538;53.626;9.906;2023-04-12T08:59:57;3.77;;;2.63;;
14892;SDS011;7538;53.626;9.906;2023-04-12T09:02:25;6.37;;;2.80;;
14892;SDS011;7538;53.626;9.906;2023-04-12T09:04:52;6.10;;;3.00;;
14892;SDS011;7538;53.626;9.906;2023-04-12T09:07:19;4.30;;;2.87;;
14892;SDS011;7538;53.626;9.906;2023-04-12T09:09:48;6.85;;;3.00;;
14892;SDS011;7538;53.626;9.906;2023-04-12T09:12:16;6.65;;;2.80;;
14892;SDS011;7538;53.626;9.906;2023-04-12T09:14:44;6.43;;;2.90;;
14892;SDS011;7538;53.626;9.906;2023-04-12T09:17:21;6.07;;;2.90;;
14892;SDS011;7538;53.626;9.906;2023-04-12T09:19:49;3.97;;;2.73;;
14892;SDS011;7538;53.626;9.906;2023-04-12T09:22:16;5.97;;;2.60;;
14892;SDS011;7538;53.626;9.906;2023-04-12T09:24:44;4.07;;;2.87;;
14892;SDS011;7538;53.626;9.906;2023-04-12T09:27:12;5.78;;;2.67;;
14892;SDS011;7538;53.626;9.906;2023-04-12T09:29:40;4.97;;;2.83;;
14892;SDS011;7538;53.626;9.906;2023-04-12T09:32:09;3.88;;;2.58;;
14892;SDS011;7538;53.626;9.906;2023-04-12T09:34:36;6.17;;;2.87;;
14892;SDS011;7538;53.626;9.906;2023-04-12T09:37:12;5.40;;;2.67;;
14892;SDS011;7538;53.626;9.906;2023-04-12T09:39:40;4.23;;;2.93;;
14892;SDS011;7538;53.626;9.906;2023-04-12T09:42:08;5.78;;;2.67;;
14892;SDS011;7538;53.626;9.906;2023-04-12T09:44:36;4.33;;;2.73;;
14892;SDS011;7538;53.626;9.906;2023-04-12T09:47:05;4.85;;;2.80;;
14892;SDS011;7538;53.626;9.906;2023-04-12T09:49:36;7.18;;;2.88;;
14892;SDS011;7538;53.626;9.906;2023-04-12T09:52:04;5.07;;;2.97;;
14892;SDS011;7538;53.626;9.906;2023-04-12T09:54:32;4.18;;;2.70;;
14892;SDS011;7538;53.626;9.906;2023-04-12T09:57:05;5.18;;;3.10;;
14892;SDS011;7538;53.626;9.906;2023-04-12T09:59:34;3.87;;;2.50;;
14892;SDS011;7538;53.626;9.906;2023-04-12T10:02:03;4.97;;;3.22;;
14892;SDS011;7538;53.626;9.906;2023-04-12T10:04:36;6.28;;;3.08;;
14892;SDS011;7538;53.626;9.906;2023-04-12T10:07:05;4.60;;;3.42;;
14892;SDS011;7538;53.626;9.906;2023-04-12T10:09:32;6.72;;;3.15;;
14892;SDS011;7538;53.626;9.906;2023-04-12T10:12:00;8.55;;;3.85;;
14892;SDS011;7538;53.626;9.906;2023-04-12T10:14:29;6.72;;;3.22;;
14892;SDS011;7538;53.626;9.906;2023-04-12T10:16:56;4.85;;;2.80;;
14892;SDS011;7538;53.626;9.906;2023-04-12T10:19:27;5.17;;;2.80;;
14892;SDS011;7538;53.626;9.906;2023-04-12T10:21:55;7.88;;;2.80;;
14892;SDS011;7538;53.626;9.906;2023-04-12T10:24:22;4.65;;;3.00;;
14892;SDS011;7538;53.626;9.906;2023-04-12T10:26:50;5.93;;;2.92;;
14892;SDS011;7538;53.626;9.906;2023-04-12T10:29:22;4.53;;;2.72;;
14892;SDS011;7538;53.626;9.906;2023-04-12T10:31:52;5.20;;;2.55;;
14892;SDS011;7538;53.626;9.906;2023-04-12T10:34:23;5.72;;;2.75;;
14892;SDS011;7538;53.626;9.906;2023-04-12T10:36:55;4.82;;;2.50;;
14892;SDS011;7538;53.626;9.906;2023-04-12T10:39:36;3.53;;;2.65;;
14892;SDS011;7538;53.626;9.906;2023-04-12T10:42:14;4.95;;;2.53;;
14892;SDS011;7538;53.626;9.906;2023-04-12T10:44:46;3.53;;;2.17;;
14892;SDS011;7538;53.626;9.906;2023-04-12T10:47:14;9.13;;;2.58;;
14892;SDS011;7538;53.626;9.906;2023-04-12T10:50:18;5.57;;;2.40;;
14892;SDS011;7538;53.626;9.906;2023-04-12T10:55:51;5.35;;;2.97;;
14892;SDS011;7538;53.626;9.906;2023-04-12T11:01:19;5.27;;;2.93;;
14892;SDS011;7538;53.626;9.906;2023-04-12T11:06:40;4.23;;;2.27;;
14892;SDS011;7538;53.626;9.906;2023-04-12T11:09:15;4.47;;;2.38;;
14892;SDS011;7538;53.626;9.906;2023-04-12T11:11:45;3.97;;;2.50;;
14892;SDS011;7538;53.626;9.906;2023-04-12T11:14:13;6.88;;;2.83;;
14892;SDS011;7538;53.626;9.906;2023-04-12T11:19:49;5.07;;;2.80;;
14892;SDS011;7538;53.626;9.906;2023-04-12T11:22:19;6.77;;;3.50;;
14892;SDS011;7538;53.626;9.906;2023-04-12T11:24:47;3.40;;;2.50;;
14892;SDS011;7538;53.626;9.906;2023-04-12T11:27:17;4.43;;;2.63;;
14892;SDS011;7538;53.626;9.906;2023-04-12T11:29:46;6.83;;;3.03;;
14892;SDS011;7538;53.626;9.906;2023-04-12T11:32:14;7.20;;;3.23;;
14892;SDS011;7538;53.626;9.906;2023-04-12T11:34:42;5.63;;;2.97;;
14892;SDS011;7538;53.626;9.906;2023-04-12T11:37:10;7.67;;;3.80;;
14892;SDS011;7538;53.626;9.906;2023-04-12T11:39:39;7.47;;;3.10;;
14892;SDS011;7538;53.626;9.906;2023-04-12T11:42:07;4.63;;;3.40;;
14892;SDS011;7538;53.626;9.906;2023-04-12T11:44:39;9.47;;;3.57;;
14892;SDS011;7538;53.626;9.906;2023-04-12T11:47:11;6.50;;;3.73;;
14892;SDS011;7538;53.626;9.906;2023-04-12T11:49:42;7.93;;;3.47;;
14892;SDS011;7538;53.626;9.906;2023-04-12T11:52:09;5.07;;;3.50;;
14892;SDS011;7538;53.626;9.906;2023-04-12T11:54:40;7.43;;;3.10;;
14892;SDS011;7538;53.626;9.906;2023-04-12T11:57:09;6.87;;;3.47;;
14892;SDS011;7538;53.626;9.906;2023-04-12T11:59:37;5.27;;;3.50;;
14892;SDS011;7538;53.626;9.906;2023-04-12T12:02:04;7.70;;;3.63;;
14892;SDS011;7538;53.626;9.906;2023-04-12T12:04:32;4.90;;;3.13;;
14892;SDS011;7538;53.626;9.906;2023-04-12T12:07:00;6.00;;;3.70;;
14892;SDS011;7538;53.626;9.906;2023-04-12T12:09:26;5.50;;;3.97;;
14892;SDS011;7538;53.626;9.906;2023-04-12T12:11:56;7.13;;;3.83;;
14892;SDS011;7538;53.626;9.906;2023-04-12T12:14:23;6.57;;;4.13;;
14892;SDS011;7538;53.626;9.906;2023-04-12T12:16:52;8.20;;;4.37;;
14892;SDS011;7538;53.626;9.906;2023-04-12T12:19:27;9.25;;;5.00;;
14892;SDS011;7538;53.626;9.906;2023-04-12T12:22:04;9.57;;;5.17;;
14892;SDS011;7538;53.626;9.906;2023-04-12T12:24:38;5.97;;;5.27;;
14892;SDS011;7538;53.626;9.906;2023-04-12T12:27:11;7.20;;;5.07;;
14892;SDS011;7538;53.626;9.906;2023-04-12T12:29:39;6.77;;;4.97;;
14892;SDS011;7538;53.626;9.906;2023-04-12T12:32:09;5.63;;;5.10;;
14892;SDS011;7538;53.626;9.906;2023-04-12T12:34:37;7.22;;;5.63;;
14892;SDS011;7538;53.626;9.906;2023-04-12T12:37:11;7.60;;;5.30;;
14892;SDS011;7538;53.626;9.906;2023-04-12T12:39:38;7.00;;;4.67;;
14892;SDS011;7538;53.626;9.906;2023-04-12T12:42:25;7.10;;;4.90;;
14892;SDS011;7538;53.626;9.906;2023-04-12T12:44:53;5.90;;;4.10;;
14892;SDS011;7538;53.626;9.906;2023-04-12T12:47:19;5.77;;;4.43;;
14892;SDS011;7538;53.626;9.906;2023-04-12T12:49:46;6.40;;;5.17;;
14892;SDS011;7538;53.626;9.906;2023-04-12T12:52:13;4.80;;;4.30;;
14892;SDS011;7538;53.626;9.906;2023-04-12T12:54:40;9.53;;;4.77;;
14892;SDS011;7538;53.626;9.906;2023-04-12T12:57:07;5.27;;;4.43;;
14892;SDS011;7538;53.626;9.906;2023-04-12T12:59:35;6.30;;;4.87;;
14892;SDS011;7538;53.626;9.906;2023-04-12T13:02:02;6.90;;;4.82;;
14892;SDS011;7538;53.626;9.906;2023-04-12T13:04:29;5.60;;;4.97;;
14892;SDS011;7538;53.626;9.906;2023-04-12T13:06:56;5.87;;;4.63;;
14892;SDS011;7538;53.626;9.906;2023-04-12T13:09:22;10.43;;;5.07;;
14892;SDS011;7538;53.626;9.906;2023-04-12T13:11:49;11.30;;;5.60;;
14892;SDS011;7538;53.626;9.906;2023-04-12T13:14:16;6.80;;;5.53;;
14892;SDS011;7538;53.626;9.906;2023-04-12T13:16:44;6.77;;;5.30;;
14892;SDS011;7538;53.626;9.906;2023-04-12T13:19:13;8.20;;;5.73;;
14892;SDS011;7538;53.626;9.906;2023-04-12T13:21:40;7.63;;;5.87;;
14892;SDS011;7538;53.626;9.906;2023-04-12T13:24:07;10.10;;;6.07;;
14892;SDS011;7538;53.626;9.906;2023-04-12T13:26:34;8.37;;;5.07;;
14892;SDS011;7538;53.626;9.906;2023-04-12T13:29:01;7.97;;;5.80;;
14892;SDS011;7538;53.626;9.906;2023-04-12T13:31:28;8.07;;;5.03;;
14892;SDS011;7538;53.626;9.906;2023-04-12T13:33:57;8.40;;;5.53;;
14892;SDS011;7538;53.626;9.906;2023-04-12T13:36:24;8.60;;;5.10;;
14892;SDS011;7538;53.626;9.906;2023-04-12T13:38:51;7.10;;;5.40;;
14892;SDS011;7538;53.626;9.906;2023-04-12T13:41:18;8.33;;;5.30;;
14892;SDS011;7538;53.626;9.906;2023-04-12T13:43:45;8.70;;;5.10;;
14892;SDS011;7538;53.626;9.906;2023-04-12T13:46:11;9.37;;;5.50;;
14892;SDS011;7538;53.626;9.906;2023-04-12T13:48:38;9.53;;;4.87;;
14892;SDS011;7538;53.626;9.906;2023-04-12T13:51:07;7.43;;;5.07;;
14892;SDS011;7538;53.626;9.906;2023-04-12T13:53:34;6.30;;;4.80;;
14892;SDS011;7538;53.626;9.906;2023-04-12T13:56:01;8.00;;;4.33;;
14892;SDS011;7538;53.626;9.906;2023-04-12T13:58:27;8.10;;;4.37;;
14892;SDS011;7538;53.626;9.906;2023-04-12T14:00:54;7.57;;;4.97;;
14892;SDS011;7538;53.626;9.906;2023-04-12T14:03:23;8.37;;;4.83;;
14892;SDS011;7538;53.626;9.906;2023-04-12T14:05:50;6.33;;;4.67;;
14892;SDS011;7538;53.626;9.906;2023-04-12T14:08:18;6.93;;;5.03;;
14892;SDS011;7538;53.626;9.906;2023-04-12T14:10:45;11.33;;;4.90;;
14892;SDS011;7538;53.626;9.906;2023-04-12T14:13:11;7.97;;;4.70;;
14892;SDS011;7538;53.626;9.906;2023-04-12T14:15:38;6.93;;;4.37;;
14892;SDS011;7538;53.626;9.906;2023-04-12T14:18:05;4.87;;;3.60;;
14892;SDS011;7538;53.626;9.906;2023-04-12T14:20:32;5.63;;;4.50;;
14892;SDS011;7538;53.626;9.906;2023-04-12T14:22:59;6.60;;;4.47;;
14892;SDS011;7538;53.626;9.906;2023-04-12T14:25:27;7.13;;;4.27;;
14892;SDS011;7538;53.626;9.906;2023-04-12T14:27:53;7.40;;;4.37;;
14892;SDS011;7538;53.626;9.906;2023-04-12T14:30:21;8.27;;;4.60;;
14892;SDS011;7538;53.626;9.906;2023-04-12T14:32:47;5.60;;;4.50;;
14892;SDS011;7538;53.626;9.906;2023-04-12T14:35:14;5.90;;;4.93;;
14892;SDS011;7538;53.626;9.906;2023-04-12T14:37:42;7.00;;;4.60;;
14892;SDS011;7538;53.626;9.906;2023-04-12T14:40:09;5.97;;;4.50;;
14892;SDS011;7538;53.626;9.906;2023-04-12T14:42:37;8.03;;;4.90;;
14892;SDS011;7538;53.626;9.906;2023-04-12T14:45:04;7.77;;;5.60;;
14892;SDS011;7538;53.626;9.906;2023-04-12T14:47:33;6.00;;;4.40;;
14892;SDS011;7538;53.626;9.906;2023-04-12T14:50:00;8.13;;;4.82;;
14892;SDS011;7538;53.626;9.906;2023-04-12T14:52:27;6.10;;;4.90;;
14892;SDS011;7538;53.626;9.906;2023-04-12T14:54:54;6.85;;;5.00;;
14892;SDS011;7538;53.626;9.906;2023-04-12T14:57:21;7.45;;;4.93;;
14892;SDS011;7538;53.626;9.906;2023-04-12T14:59:49;6.97;;;4.50;;
14892;SDS011;7538;53.626;9.906;2023-04-12T15:02:16;8.17;;;5.50;;
14892;SDS011;7538;53.626;9.906;2023-04-12T15:04:43;6.07;;;4.60;;
14892;SDS011;7538;53.626;9.906;2023-04-12T15:07:13;4.65;;;4.20;;
14892;SDS011;7538;53.626;9.906;2023-04-12T15:09:40;7.80;;;4.10;;
14892;SDS011;7538;53.626;9.906;2023-04-12T15:12:08;7.03;;;4.30;;
14892;SDS011;7538;53.626;9.906;2023-04-12T15:14:34;6.20;;;4.30;;
14892;SDS011;7538;53.626;9.906;2023-04-12T15:17:03;8.17;;;4.93;;